Time;durP1;ratioP1;P1;durP2;ratioP2;P2;SDS_P1;SDS_P2;PMS_P1;PMS_P2;Temp;Humidity;BMP_temperature;BMP_pressure;BME280_temperature;BME280_humidity;BME280_pressure;Samples;Min_cycle;Max_cycle;Signal;HPM_P1;HPM_P2
2022/03/31 00:00:32;;;;;;;18.07;8.50;;;7.70;99.90;;;;;;5025189;28;21331;-58
2022/03/31 00:02:59;;;;;;;11.73;7.17;;;7.70;99.90;;;;;;5022094;28;20449;-58
2022/03/31 00:05:25;;;;;;;14.73;7.40;;;7.60;99.90;;;;;;5026587;28;20183;-60
2022/03/31 00:07:53;;;;;;;10.47;6.73;;;7.60;99.90;;;;;;5030976;28;20433;-58
2022/03/31 00:10:20;;;;;;;11.03;7.00;;;7.60;99.90;;;;;;5018642;28;20434;-59
2022/03/31 00:12:47;;;;;;;10.90;6.43;;;7.60;99.90;;;;;;5018486;28;20485;-58
2022/03/31 00:15:12;;;;;;;15.97;7.77;;;7.60;99.90;;;;;;5022051;28;20493;-58
2022/03/31 00:17:38;;;;;;;15.47;8.20;;;7.60;99.90;;;;;;5011765;28;20495;-58
2022/03/31 00:20:04;;;;;;;18.63;9.03;;;7.50;99.90;;;;;;5012261;28;21031;-58
2022/03/31 00:22:30;;;;;;;14.87;8.43;;;7.50;99.90;;;;;;5018918;28;20243;-58
2022/03/31 00:24:55;;;;;;;12.63;8.50;;;7.50;99.90;;;;;;5017887;28;20552;-58
2022/03/31 00:27:21;;;;;;;16.50;9.07;;;7.50;99.90;;;;;;5023549;28;20215;-61
2022/03/31 00:29:47;;;;;;;15.13;8.47;;;7.50;99.90;;;;;;5021036;28;20268;-58
2022/03/31 00:32:13;;;;;;;14.73;9.00;;;7.40;99.90;;;;;;5015704;28;20267;-58
2022/03/31 00:34:39;;;;;;;15.93;8.80;;;7.40;99.90;;;;;;5021122;28;20203;-59
2022/03/31 00:37:05;;;;;;;18.40;10.43;;;7.50;99.90;;;;;;5016076;28;20449;-58
2022/03/31 00:39:34;;;;;;;29.33;11.57;;;7.40;99.90;;;;;;5012292;28;20176;-57
2022/03/31 00:42:01;;;;;;;16.27;9.80;;;7.40;99.90;;;;;;5020298;28;20905;-58
2022/03/31 00:44:27;;;;;;;18.00;9.50;;;7.40;99.90;;;;;;5012712;28;20478;-59
2022/03/31 00:46:55;;;;;;;21.40;9.03;;;7.40;99.90;;;;;;5017376;28;20438;-58
2022/03/31 00:49:22;;;;;;;14.87;8.43;;;7.40;99.90;;;;;;5023618;28;20445;-58
2022/03/31 00:51:50;;;;;;;22.60;10.10;;;7.40;99.90;;;;;;5021319;28;20449;-59
2022/03/31 00:54:18;;;;;;;19.17;10.00;;;7.40;99.90;;;;;;5020430;28;20558;-58
2022/03/31 00:56:44;;;;;;;12.63;8.00;;;7.50;99.90;;;;;;5024583;28;20436;-59
2022/03/31 00:59:13;;;;;;;15.67;9.10;;;7.40;99.90;;;;;;5014441;28;20435;-58
2022/03/31 01:01:40;;;;;;;17.07;9.17;;;7.50;99.90;;;;;;5020680;28;21074;-58
2022/03/31 01:04:09;;;;;;;16.47;7.60;;;7.40;99.90;;;;;;5020947;28;21101;-58
2022/03/31 01:06:35;;;;;;;13.50;7.97;;;7.40;99.90;;;;;;5019597;28;20480;-58
2022/03/31 01:09:02;;;;;;;10.00;6.40;;;7.40;99.90;;;;;;5020580;28;20447;-58
2022/03/31 01:11:32;;;;;;;20.57;7.20;;;7.40;99.90;;;;;;5020415;28;20435;-58
2022/03/31 01:13:58;;;;;;;15.10;8.10;;;7.40;99.90;;;;;;5022777;28;20827;-58
2022/03/31 01:16:24;;;;;;;11.50;7.80;;;7.30;99.90;;;;;;5018568;28;20940;-58
2022/03/31 01:18:53;;;;;;;11.83;6.43;;;7.30;99.90;;;;;;5025466;28;20426;-58
2022/03/31 01:21:19;;;;;;;11.20;7.40;;;7.30;99.90;;;;;;5022913;28;20451;-58
2022/03/31 01:23:45;;;;;;;12.20;7.30;;;7.30;99.90;;;;;;5026867;28;20459;-58
2022/03/31 01:26:12;;;;;;;12.67;6.80;;;7.30;99.90;;;;;;5016469;28;20439;-59
2022/03/31 01:28:41;;;;;;;15.73;8.40;;;7.30;99.90;;;;;;5012152;28;20812;-58
2022/03/31 01:31:06;;;;;;;12.10;7.17;;;7.30;99.90;;;;;;5020328;28;20523;-58
2022/03/31 01:33:33;;;;;;;14.70;8.87;;;7.30;99.90;;;;;;5019874;28;20537;-58
2022/03/31 01:35:59;;;;;;;13.67;8.63;;;7.30;99.90;;;;;;5019079;28;20200;-58
2022/03/31 01:38:25;;;;;;;14.97;7.80;;;7.30;99.90;;;;;;5020095;28;20501;-58
2022/03/31 01:40:51;;;;;;;12.43;8.00;;;7.30;99.90;;;;;;5021634;28;20435;-58
2022/03/31 01:43:17;;;;;;;15.17;8.67;;;7.30;99.90;;;;;;5016075;28;20455;-58
2022/03/31 01:45:43;;;;;;;13.50;8.60;;;7.30;99.90;;;;;;5018445;28;21019;-58
2022/03/31 01:48:09;;;;;;;16.60;9.40;;;7.30;99.90;;;;;;5018699;28;20447;-58
2022/03/31 01:50:34;;;;;;;15.40;9.47;;;7.30;99.90;;;;;;5024889;28;20710;-58
2022/03/31 01:53:00;;;;;;;20.03;9.67;;;7.30;99.90;;;;;;5019100;28;20201;-58
2022/03/31 01:55:26;;;;;;;21.43;9.50;;;7.30;99.90;;;;;;5019163;28;20204;-58
2022/03/31 01:57:52;;;;;;;23.77;9.60;;;7.30;99.90;;;;;;5011461;28;20265;-58
2022/03/31 02:00:17;;;;;;;15.57;9.30;;;7.30;99.90;;;;;;5012034;28;20191;-58
2022/03/31 02:02:43;;;;;;;20.50;9.30;;;7.40;99.90;;;;;;5016938;28;20735;-58
2022/03/31 02:05:11;;;;;;;15.77;9.33;;;7.40;99.90;;;;;;5024557;28;20683;-59
2022/03/31 02:07:38;;;;;;;17.10;10.13;;;7.40;99.90;;;;;;5009002;28;20431;-58
2022/03/31 02:10:07;;;;;;;15.70;9.30;;;7.30;99.90;;;;;;5016706;28;20428;-58
2022/03/31 02:12:34;;;;;;;28.33;12.00;;;7.30;99.90;;;;;;5009162;28;20951;-58
2022/03/31 02:15:01;;;;;;;22.63;11.77;;;7.30;99.90;;;;;;5016408;28;20466;-57
2022/03/31 02:17:26;;;;;;;23.97;11.57;;;7.30;99.90;;;;;;5012285;28;20435;-59
2022/03/31 02:19:52;;;;;;;24.43;11.30;;;7.30;99.90;;;;;;5004975;28;20547;-58
2022/03/31 02:22:18;;;;;;;23.90;13.17;;;7.30;99.90;;;;;;5013316;28;20267;-58
2022/03/31 02:24:43;;;;;;;27.33;12.53;;;7.30;99.90;;;;;;5015077;28;20579;-58
2022/03/31 02:27:09;;;;;;;19.60;11.17;;;7.30;99.90;;;;;;5013029;28;20225;-59
2022/03/31 02:29:35;;;;;;;24.73;12.90;;;7.30;99.90;;;;;;5012238;28;20826;-58
2022/03/31 02:32:00;;;;;;;23.83;12.50;;;7.30;99.90;;;;;;5020356;28;20179;-58
2022/03/31 02:34:26;;;;;;;26.13;13.33;;;7.30;99.90;;;;;;5021335;28;20828;-58
2022/03/31 02:36:52;;;;;;;25.60;12.70;;;7.30;99.90;;;;;;5020238;28;20268;-58
2022/03/31 02:39:18;;;;;;;28.07;13.03;;;7.30;99.90;;;;;;5011862;28;20215;-58
2022/03/31 02:41:44;;;;;;;27.57;13.23;;;7.30;99.90;;;;;;5016303;28;20427;-58
2022/03/31 02:44:10;;;;;;;22.40;13.33;;;7.30;99.90;;;;;;5047778;22;20223;-58
2022/03/31 02:46:36;;;;;;;34.67;14.40;;;7.30;99.90;;;;;;5016920;28;20180;-59
2022/03/31 02:49:04;;;;;;;28.60;13.80;;;7.30;99.90;;;;;;5016800;28;20164;-58
2022/03/31 02:51:30;;;;;;;23.47;12.40;;;7.30;99.90;;;;;;5022992;28;20431;-59
2022/03/31 02:56:40;;;;;;;41.53;12.80;;;7.30;99.90;;;;;;5017232;28;20591;-59
2022/03/31 02:59:07;;;;;;;26.07;12.60;;;7.20;99.90;;;;;;5012575;28;20426;-59
2022/03/31 03:01:33;;;;;;;29.60;13.00;;;7.20;99.90;;;;;;5028340;28;20263;-57
2022/03/31 03:03:59;;;;;;;22.87;12.10;;;7.20;99.90;;;;;;5013278;28;20592;-57
2022/03/31 03:06:25;;;;;;;25.57;12.80;;;7.20;99.90;;;;;;5012528;28;20509;-59
2022/03/31 03:08:51;;;;;;;27.13;13.00;;;7.20;99.90;;;;;;5013560;28;20426;-58
2022/03/31 03:11:17;;;;;;;28.80;12.73;;;7.20;99.90;;;;;;5015990;28;20860;-58
2022/03/31 03:13:46;;;;;;;24.67;13.13;;;7.20;99.90;;;;;;5005800;28;21001;-58
2022/03/31 03:16:14;;;;;;;21.60;12.30;;;7.20;99.90;;;;;;5018973;28;20501;-59
2022/03/31 03:18:40;;;;;;;25.87;12.70;;;7.20;99.90;;;;;;5015807;28;20434;-58
2022/03/31 03:21:07;;;;;;;27.00;14.57;;;7.20;99.90;;;;;;5016070;28;20462;-58
2022/03/31 03:23:34;;;;;;;24.23;13.93;;;7.20;99.90;;;;;;5014120;28;21059;-59
2022/03/31 03:26:01;;;;;;;25.53;12.37;;;7.20;99.90;;;;;;5013793;28;20426;-58
2022/03/31 03:28:30;;;;;;;28.03;12.90;;;7.30;99.90;;;;;;5013937;28;20434;-58
2022/03/31 03:30:56;;;;;;;27.80;12.63;;;7.30;99.90;;;;;;5015745;28;21197;-58
2022/03/31 03:33:22;;;;;;;33.50;15.70;;;7.30;99.90;;;;;;5021018;28;20455;-58
2022/03/31 03:35:48;;;;;;;27.60;15.13;;;7.30;99.90;;;;;;5026409;28;20527;-58
2022/03/31 03:38:17;;;;;;;25.37;14.30;;;7.30;99.90;;;;;;5018434;28;20180;-58
2022/03/31 03:40:43;;;;;;;24.90;13.80;;;7.30;99.90;;;;;;5015422;28;20961;-58
2022/03/31 03:43:09;;;;;;;27.87;12.63;;;7.30;99.90;;;;;;5016609;28;20858;-58
2022/03/31 03:45:36;;;;;;;29.73;14.77;;;7.30;99.90;;;;;;5023358;28;20462;-59
2022/03/31 03:48:01;;;;;;;28.63;16.30;;;7.30;99.90;;;;;;5021595;28;20450;-59
2022/03/31 03:50:27;;;;;;;28.40;15.90;;;7.30;99.90;;;;;;5019269;28;20585;-58
2022/03/31 03:52:53;;;;;;;31.13;16.80;;;7.30;99.90;;;;;;5014107;28;20199;-58
2022/03/31 03:55:18;;;;;;;29.80;16.13;;;7.30;99.90;;;;;;5018223;28;20211;-58
2022/03/31 03:57:44;;;;;;;34.47;16.97;;;7.30;99.90;;;;;;5022186;28;20187;-58
2022/03/31 04:00:11;;;;;;;34.90;18.43;;;7.30;99.90;;;;;;5018365;28;20251;-59
2022/03/31 04:02:38;;;;;;;36.43;17.90;;;7.30;99.90;;;;;;5020395;28;20570;-59
2022/03/31 04:05:04;;;;;;;35.80;18.00;;;7.30;99.90;;;;;;5023570;28;20449;-57
2022/03/31 04:07:30;;;;;;;46.77;19.90;;;7.30;99.90;;;;;;5028248;28;21065;-58
2022/03/31 04:09:56;;;;;;;32.27;17.13;;;7.30;99.90;;;;;;5025804;28;20430;-58
2022/03/31 04:12:22;;;;;;;41.10;18.70;;;7.30;99.90;;;;;;5022101;28;20200;-58
2022/03/31 04:14:49;;;;;;;42.03;18.57;;;7.30;99.90;;;;;;5020396;28;20243;-58
2022/03/31 04:17:15;;;;;;;39.97;19.80;;;7.30;99.90;;;;;;5014890;28;20479;-58
2022/03/31 04:19:42;;;;;;;35.70;17.37;;;7.30;99.90;;;;;;5021177;28;20473;-59
2022/03/31 04:22:08;;;;;;;33.33;17.43;;;7.30;99.90;;;;;;5026098;28;20438;-59
2022/03/31 04:24:34;;;;;;;37.07;17.20;;;7.30;99.90;;;;;;5024010;28;20458;-58
2022/03/31 04:27:00;;;;;;;35.50;19.30;;;7.30;99.90;;;;;;5020673;28;20465;-56
2022/03/31 04:29:26;;;;;;;37.13;17.73;;;7.30;99.90;;;;;;5024366;28;20270;-58
2022/03/31 04:31:51;;;;;;;31.30;16.80;;;7.30;99.90;;;;;;5027154;28;20175;-58
2022/03/31 04:34:19;;;;;;;26.50;14.10;;;7.30;99.90;;;;;;5024598;28;20211;-59
2022/03/31 04:36:48;;;;;;;25.10;14.83;;;7.30;99.90;;;;;;5017489;28;20629;-60
2022/03/31 04:39:15;;;;;;;32.90;14.60;;;7.30;99.90;;;;;;5017672;28;20427;-58
2022/03/31 04:41:42;;;;;;;24.30;13.77;;;7.30;99.90;;;;;;5019978;28;20445;-58
2022/03/31 04:44:08;;;;;;;28.40;14.80;;;7.30;99.90;;;;;;5018625;28;20467;-58
2022/03/31 04:46:34;;;;;;;37.43;14.90;;;7.30;99.90;;;;;;5017796;28;20466;-59
2022/03/31 04:49:00;;;;;;;33.17;16.90;;;7.30;99.90;;;;;;5020822;28;20471;-58
2022/03/31 04:51:26;;;;;;;33.67;17.13;;;7.30;99.90;;;;;;5016149;28;21251;-58
2022/03/31 04:53:52;;;;;;;33.97;17.73;;;7.30;99.90;;;;;;5009459;28;20515;-58
2022/03/31 04:56:18;;;;;;;31.47;16.57;;;7.30;99.90;;;;;;5014547;28;20453;-59
2022/03/31 04:58:44;;;;;;;34.97;18.67;;;7.30;99.90;;;;;;5013229;28;20188;-60
2022/03/31 05:01:11;;;;;;;32.07;17.07;;;7.30;99.90;;;;;;5019990;28;20180;-57
2022/03/31 05:03:37;;;;;;;29.70;14.93;;;7.30;99.90;;;;;;5016843;28;20561;-57
2022/03/31 05:06:04;;;;;;;25.97;14.10;;;7.30;99.90;;;;;;4999392;28;20491;-57
2022/03/31 05:08:30;;;;;;;25.80;13.37;;;7.30;99.90;;;;;;5016469;28;20475;-56
2022/03/31 05:10:56;;;;;;;27.47;14.00;;;7.30;99.90;;;;;;5020199;28;20536;-57
2022/03/31 05:13:21;;;;;;;24.37;13.60;;;7.30;99.90;;;;;;5012980;28;20793;-53
2022/03/31 05:15:47;;;;;;;28.50;14.87;;;7.20;99.90;;;;;;5022788;28;20211;-59
2022/03/31 05:18:13;;;;;;;28.77;15.90;;;7.20;99.90;;;;;;5027928;28;20266;-60
2022/03/31 05:20:39;;;;;;;24.03;14.47;;;7.20;99.90;;;;;;5026272;28;20199;-59
2022/03/31 05:23:05;;;;;;;26.57;14.37;;;7.20;99.90;;;;;;5026166;28;20450;-58
2022/03/31 05:25:31;;;;;;;29.43;16.03;;;7.20;99.90;;;;;;5024332;28;20466;-56
2022/03/31 05:27:59;;;;;;;31.77;16.53;;;7.20;99.90;;;;;;5025074;28;20179;-60
2022/03/31 05:30:24;;;;;;;25.73;13.40;;;7.20;99.90;;;;;;5022921;28;20175;-58
2022/03/31 05:32:52;;;;;;;31.97;15.47;;;7.20;99.90;;;;;;5025550;28;20482;-61
2022/03/31 05:35:18;;;;;;;29.33;16.43;;;7.20;99.90;;;;;;5025436;28;20230;-62
2022/03/31 05:37:44;;;;;;;28.40;15.53;;;7.20;99.90;;;;;;5022975;28;20919;-59
2022/03/31 05:40:10;;;;;;;30.40;16.00;;;7.20;99.90;;;;;;5021292;28;20180;-61
2022/03/31 05:42:37;;;;;;;29.07;15.00;;;7.20;99.90;;;;;;5022907;28;20266;-61
2022/03/31 05:45:05;;;;;;;36.67;17.40;;;7.30;99.90;;;;;;5026809;28;20518;-60
2022/03/31 05:47:30;;;;;;;26.10;15.17;;;7.30;99.90;;;;;;5023933;28;20642;-61
2022/03/31 05:49:56;;;;;;;29.20;16.33;;;7.30;99.90;;;;;;5026374;28;20429;-56
2022/03/31 05:52:23;;;;;;;31.17;15.53;;;7.30;99.90;;;;;;5013168;28;20187;-58
2022/03/31 05:54:48;;;;;;;28.00;14.93;;;7.30;99.90;;;;;;5014559;28;20204;-59
2022/03/31 05:57:15;;;;;;;25.30;13.90;;;7.30;99.90;;;;;;5023076;28;20430;-61
2022/03/31 05:59:41;;;;;;;30.50;16.20;;;7.30;99.90;;;;;;5024783;28;20278;-59
2022/03/31 06:02:08;;;;;;;29.10;15.17;;;7.30;99.90;;;;;;5028955;28;20513;-61
2022/03/31 06:04:34;;;;;;;29.87;14.20;;;7.30;99.90;;;;;;5022126;28;20445;-58
2022/03/31 06:06:59;;;;;;;28.93;14.33;;;7.30;99.90;;;;;;5024658;28;20431;-60
2022/03/31 06:09:25;;;;;;;31.60;15.80;;;7.30;99.90;;;;;;5023206;28;20592;-58
2022/03/31 06:11:51;;;;;;;36.50;16.40;;;7.30;99.90;;;;;;5023284;28;20187;-59
2022/03/31 06:14:16;;;;;;;30.20;15.63;;;7.30;99.90;;;;;;5019642;28;20222;-61
2022/03/31 06:16:42;;;;;;;31.00;16.17;;;7.40;99.90;;;;;;5023368;28;20169;-61
2022/03/31 06:19:08;;;;;;;35.07;16.40;;;7.40;99.90;;;;;;5025748;28;20172;-61
2022/03/31 06:21:35;;;;;;;26.90;15.30;;;7.40;99.90;;;;;;5023329;28;20172;-62
2022/03/31 06:24:01;;;;;;;33.80;17.20;;;7.40;99.90;;;;;;5024280;28;20482;-63
2022/03/31 06:26:28;;;;;;;34.37;17.23;;;7.40;99.90;;;;;;5021378;28;20493;-59
2022/03/31 06:28:54;;;;;;;34.90;17.87;;;7.40;99.90;;;;;;5026150;28;20446;-59
2022/03/31 06:31:22;;;;;;;37.43;16.10;;;7.40;99.90;;;;;;5023206;28;20532;-59
2022/03/31 06:33:48;;;;;;;34.13;16.40;;;7.40;99.90;;;;;;5022545;28;20200;-58
2022/03/31 06:36:14;;;;;;;36.03;17.57;;;7.50;99.90;;;;;;5023318;28;21124;-59
2022/03/31 06:38:40;;;;;;;33.90;18.13;;;7.50;99.90;;;;;;5023031;28;20183;-54
2022/03/31 06:41:10;;;;;;;31.90;16.37;;;7.60;99.90;;;;;;5020299;28;20431;-59
2022/03/31 06:43:40;;;;;;;29.80;16.60;;;7.60;99.90;;;;;;5022376;28;20277;-59
2022/03/31 06:46:07;;;;;;;34.27;16.17;;;7.70;99.90;;;;;;5023941;28;20637;-58
2022/03/31 06:48:35;;;;;;;29.87;16.57;;;7.70;99.90;;;;;;5025737;28;20852;-58
2022/03/31 06:51:02;;;;;;;29.80;16.37;;;7.70;99.90;;;;;;5026917;28;20417;-60
2022/03/31 06:53:28;;;;;;;31.40;16.60;;;7.80;99.90;;;;;;5014278;28;20531;-59
2022/03/31 06:55:53;;;;;;;32.50;16.93;;;7.90;99.90;;;;;;5024075;28;20611;-60
2022/03/31 06:58:21;;;;;;;30.80;15.90;;;7.90;99.90;;;;;;5026975;28;20671;-59
2022/03/31 07:00:47;;;;;;;31.53;16.60;;;8.00;99.90;;;;;;5017715;28;20677;-60
2022/03/31 07:03:13;;;;;;;26.90;14.70;;;8.10;99.90;;;;;;5010993;28;20958;-59
2022/03/31 07:05:38;;;;;;;26.47;14.47;;;8.20;99.90;;;;;;5021654;28;20602;-61
2022/03/31 07:08:05;;;;;;;30.50;15.63;;;8.20;99.90;;;;;;5030913;28;20172;-60
2022/03/31 07:10:31;;;;;;;28.00;13.97;;;8.20;99.90;;;;;;5031728;28;20266;-59
2022/03/31 07:12:56;;;;;;;30.00;15.17;;;8.30;99.90;;;;;;5028080;28;20513;-60
2022/03/31 07:15:22;;;;;;;24.83;14.37;;;8.30;99.90;;;;;;5029693;28;20307;-59
2022/03/31 07:17:48;;;;;;;31.03;15.20;;;8.40;99.90;;;;;;5031620;28;20194;-59
2022/03/31 07:20:13;;;;;;;29.00;15.67;;;8.40;99.90;;;;;;5025101;28;20180;-61
2022/03/31 07:22:50;;;;;;;36.07;16.00;;;8.50;99.90;;;;;;5027487;28;20471;-59
2022/03/31 07:25:16;;;;;;;29.57;15.50;;;8.60;99.90;;;;;;5029134;28;20210;-60
2022/03/31 07:27:44;;;;;;;28.00;13.80;;;8.70;99.90;;;;;;5025332;28;20525;-59
2022/03/31 07:30:13;;;;;;;25.20;13.70;;;8.80;99.90;;;;;;5019057;28;20442;-60
2022/03/31 07:33:06;;;;;;;24.20;14.33;;;8.90;99.90;;;;;;5029228;28;20802;-59
2022/03/31 07:35:34;;;;;;;28.03;12.77;;;9.00;99.90;;;;;;5016581;28;20469;-59
2022/03/31 07:38:03;;;;;;;21.80;11.57;;;9.10;99.90;;;;;;5028788;28;20433;-59
2022/03/31 07:40:29;;;;;;;21.43;11.50;;;9.20;99.90;;;;;;5027993;28;20477;-59
2022/03/31 07:42:55;;;;;;;34.67;12.43;;;9.30;99.90;;;;;;5028969;28;20454;-58
2022/03/31 07:45:22;;;;;;;24.53;12.10;;;9.40;99.90;;;;;;5026915;28;20945;-58
2022/03/31 07:47:48;;;;;;;29.53;12.00;;;9.50;99.90;;;;;;5028360;28;20503;-58
2022/03/31 07:50:15;;;;;;;25.23;11.60;;;9.60;99.90;;;;;;5027693;28;20922;-59
2022/03/31 07:52:42;;;;;;;26.87;12.30;;;9.60;99.90;;;;;;5029132;28;20233;-59
2022/03/31 07:55:10;;;;;;;22.33;11.23;;;9.60;99.90;;;;;;5024900;28;20450;-59
2022/03/31 07:57:37;;;;;;;25.53;11.53;;;9.50;99.90;;;;;;5024277;28;20442;-59
2022/03/31 08:00:08;;;;;;;17.83;10.77;;;9.50;99.90;;;;;;5023650;28;20406;-59
2022/03/31 08:02:34;;;;;;;20.73;10.90;;;9.50;99.90;;;;;;5029616;28;20800;-60
2022/03/31 08:05:00;;;;;;;24.73;10.53;;;9.50;99.90;;;;;;5026531;28;20438;-59
2022/03/31 08:07:25;;;;;;;20.03;10.10;;;9.50;99.90;;;;;;5026756;28;20729;-58
2022/03/31 08:09:51;;;;;;;21.07;10.33;;;9.60;99.90;;;;;;5026980;28;20329;-59
2022/03/31 08:12:17;;;;;;;19.53;10.30;;;9.70;99.90;;;;;;5028130;28;20204;-60
2022/03/31 08:14:43;;;;;;;21.83;10.87;;;9.80;99.90;;;;;;5024347;28;20335;-59
2022/03/31 08:17:09;;;;;;;31.77;11.73;;;9.90;99.90;;;;;;5029664;28;20501;-59
2022/03/31 08:19:34;;;;;;;27.17;10.27;;;10.00;99.90;;;;;;5028076;28;20195;-59
2022/03/31 08:22:01;;;;;;;19.67;10.10;;;10.20;99.90;;;;;;5023803;28;20168;-59
2022/03/31 08:24:30;;;;;;;21.20;9.43;;;10.30;99.90;;;;;;5019740;28;20542;-59
2022/03/31 08:26:58;;;;;;;23.20;9.10;;;10.50;99.90;;;;;;5023918;28;20449;-58
2022/03/31 08:29:25;;;;;;;20.57;9.10;;;10.70;99.90;;;;;;5025608;28;20539;-58
2022/03/31 08:31:52;;;;;;;19.80;9.27;;;10.80;99.90;;;;;;5020396;28;20414;-59
2022/03/31 08:34:17;;;;;;;17.70;9.83;;;10.80;99.90;;;;;;5028929;28;20469;-58
2022/03/31 08:36:43;;;;;;;17.67;9.33;;;11.00;99.90;;;;;;5029062;28;20395;-59
2022/03/31 08:39:09;;;;;;;18.53;9.70;;;10.90;99.90;;;;;;5016780;28;20192;-59
2022/03/31 08:41:35;;;;;;;26.83;9.20;;;10.90;99.90;;;;;;5012753;28;20669;-58
2022/03/31 08:44:01;;;;;;;17.60;8.20;;;10.80;99.90;;;;;;5008720;28;20204;-58
2022/03/31 08:46:32;;;;;;;27.93;9.57;;;10.60;99.90;;;;;;5015213;28;21982;-58
2022/03/31 08:48:58;;;;;;;19.13;8.30;;;10.30;99.90;;;;;;5027985;28;20171;-59
2022/03/31 08:51:25;;;;;;;16.40;8.40;;;10.10;99.90;;;;;;5038666;28;20430;-58
2022/03/31 08:53:51;;;;;;;21.37;8.83;;;9.90;99.90;;;;;;5043688;22;20497;-61
2022/03/31 08:56:16;;;;;;;23.10;8.73;;;9.80;99.90;;;;;;5026255;28;20470;-61
2022/03/31 08:58:44;;;;;;;23.33;8.90;;;9.70;99.90;;;;;;5030045;28;20184;-61
2022/03/31 09:01:12;;;;;;;22.40;9.30;;;9.60;99.90;;;;;;5031709;28;20168;-61
2022/03/31 09:03:39;;;;;;;17.90;8.77;;;9.70;99.90;;;;;;5027498;28;20443;-60
2022/03/31 09:06:07;;;;;;;18.60;9.40;;;9.90;99.90;;;;;;5026158;28;20505;-60
2022/03/31 09:08:33;;;;;;;18.80;10.13;;;10.20;99.90;;;;;;5025778;28;20441;-61
2022/03/31 09:11:00;;;;;;;21.60;9.37;;;10.40;99.90;;;;;;5030073;28;20898;-60
2022/03/31 09:13:37;;;;;;;16.17;9.00;;;10.60;99.90;;;;;;5027127;28;20206;-61
2022/03/31 09:16:06;;;;;;;16.47;9.20;;;10.80;99.90;;;;;;5015400;28;20467;-61
2022/03/31 09:18:34;;;;;;;22.90;8.63;;;11.00;99.90;;;;;;5016929;28;20794;-61
2022/03/31 09:21:01;;;;;;;21.97;9.17;;;11.00;99.90;;;;;;5031125;28;20411;-61
2022/03/31 09:23:29;;;;;;;23.30;8.83;;;10.90;99.90;;;;;;5023617;28;20451;-60
2022/03/31 09:26:08;;;;;;;18.93;7.63;;;10.80;99.90;;;;;;5024764;28;20422;-60
2022/03/31 09:28:35;;;;;;;21.87;8.20;;;10.80;99.90;;;;;;5028689;28;21131;-61
2022/03/31 09:31:01;;;;;;;17.73;8.73;;;10.70;99.90;;;;;;5030078;28;20529;-60
2022/03/31 09:33:31;;;;;;;24.63;10.20;;;10.60;99.90;;;;;;5024063;28;20520;-61
2022/03/31 09:36:03;;;;;;;21.30;9.83;;;10.50;99.90;;;;;;5028962;28;20565;-60
2022/03/31 09:38:29;;;;;;;18.40;8.90;;;10.40;99.90;;;;;;5025039;28;20461;-61
2022/03/31 09:40:55;;;;;;;21.27;9.50;;;10.30;99.90;;;;;;5024577;28;20514;-60
2022/03/31 09:43:21;;;;;;;21.30;9.60;;;10.30;99.90;;;;;;5029297;28;20943;-61
2022/03/31 09:45:48;;;;;;;16.07;8.40;;;10.30;99.90;;;;;;5029666;28;20957;-61
2022/03/31 09:48:19;;;;;;;19.50;9.67;;;10.40;99.90;;;;;;5030056;28;20399;-61
2022/03/31 09:50:46;;;;;;;19.80;9.20;;;10.60;99.90;;;;;;5028085;28;20484;-61
2022/03/31 09:53:13;;;;;;;25.57;9.47;;;10.90;99.90;;;;;;5027991;28;20497;-61
2022/03/31 09:55:41;;;;;;;17.00;8.67;;;11.30;99.90;;;;;;5028700;28;20554;-61
2022/03/31 09:58:08;;;;;;;15.10;8.53;;;11.70;99.90;;;;;;5025394;28;20522;-61
2022/03/31 10:00:34;;;;;;;18.83;8.90;;;12.00;99.30;;;;;;5030778;28;20846;-61
2022/03/31 10:03:00;;;;;;;15.97;8.20;;;12.30;99.20;;;;;;5026131;28;20958;-60
2022/03/31 10:05:27;;;;;;;17.80;8.43;;;12.50;97.00;;;;;;5028561;28;20445;-61
2022/03/31 10:07:54;;;;;;;18.27;8.97;;;12.60;94.10;;;;;;5025859;28;20438;-60
2022/03/31 10:10:20;;;;;;;20.27;8.77;;;12.60;93.50;;;;;;5028728;28;20406;-60
2022/03/31 10:13:20;;;;;;;17.67;8.23;;;12.50;92.70;;;;;;5023585;28;20454;-61
2022/03/31 10:15:47;;;;;;;14.23;8.83;;;12.30;90.40;;;;;;5020838;28;20211;-61
2022/03/31 10:18:15;;;;;;;14.10;7.10;;;12.00;86.10;;;;;;5029652;28;20456;-60
2022/03/31 10:20:52;;;;;;;21.13;8.57;;;11.80;91.00;;;;;;5029466;28;20468;-60
2022/03/31 10:26:03;;;;;;;19.83;7.73;;;11.40;94.10;;;;;;5015326;28;20488;-61
2022/03/31 10:28:28;;;;;;;17.27;8.27;;;11.30;94.80;;;;;;5027374;28;20431;-60
2022/03/31 10:30:55;;;;;;;17.10;7.23;;;11.20;94.50;;;;;;5027719;28;20180;-61
2022/03/31 10:33:51;;;;;;;18.50;7.17;;;11.00;91.60;;;;;;5028024;28;20283;-61
2022/03/31 10:36:19;;;;;;;20.47;8.00;;;10.90;91.30;;;;;;5026079;28;20470;-61
2022/03/31 10:39:01;;;;;;;16.17;7.50;;;10.80;93.40;;;;;;5027927;28;20427;-60
2022/03/31 10:41:30;;;;;;;15.00;7.57;;;10.80;96.20;;;;;;5026541;28;20462;-61
2022/03/31 10:43:59;;;;;;;14.33;6.90;;;10.70;97.50;;;;;;5009676;28;20507;-61
2022/03/31 10:46:32;;;;;;;12.33;7.30;;;10.80;98.20;;;;;;5009234;28;20952;-61
2022/03/31 10:48:58;;;;;;;17.17;7.53;;;10.80;99.30;;;;;;5024763;28;20434;-61
2022/03/31 10:51:38;;;;;;;13.17;6.97;;;10.90;98.20;;;;;;5016531;28;20434;-60
2022/03/31 10:54:05;;;;;;;13.30;6.63;;;11.00;98.70;;;;;;5027385;28;20449;-61
2022/03/31 10:56:32;;;;;;;24.10;8.70;;;11.10;98.10;;;;;;5027697;28;21075;-60
2022/03/31 10:59:00;;;;;;;18.73;7.23;;;11.10;98.20;;;;;;5018466;28;20427;-60
2022/03/31 11:01:31;;;;;;;20.00;7.93;;;11.10;95.90;;;;;;5009358;28;20920;-61
2022/03/31 11:04:15;;;;;;;16.30;7.37;;;11.10;95.60;;;;;;5025150;28;20438;-60
2022/03/31 11:07:01;;;;;;;21.87;8.17;;;11.00;94.70;;;;;;5026836;28;20938;-60
2022/03/31 11:09:27;;;;;;;29.50;8.53;;;11.00;96.70;;;;;;5026186;28;20438;-60
2022/03/31 11:11:55;;;;;;;15.90;7.63;;;11.00;94.60;;;;;;5021409;28;20426;-61
2022/03/31 11:14:21;;;;;;;27.90;6.90;;;11.00;96.30;;;;;;5020320;28;20553;-61
2022/03/31 11:16:46;;;;;;;17.90;8.37;;;11.10;96.60;;;;;;5023547;28;20437;-60
2022/03/31 11:19:13;;;;;;;19.03;8.70;;;11.20;98.10;;;;;;5019947;28;20183;-61
2022/03/31 11:21:42;;;;;;;20.73;7.07;;;11.40;97.60;;;;;;5019056;28;20283;-60
2022/03/31 11:24:10;;;;;;;17.23;7.70;;;11.60;98.30;;;;;;5015815;28;20453;-60
2022/03/31 11:26:41;;;;;;;16.67;7.60;;;11.60;95.80;;;;;;5025559;28;20429;-61
2022/03/31 11:29:13;;;;;;;17.33;8.00;;;11.60;98.60;;;;;;5026491;28;21123;-61
2022/03/31 11:31:46;;;;;;;18.90;8.03;;;11.60;98.50;;;;;;5022010;28;20410;-61
2022/03/31 11:34:16;;;;;;;17.47;7.83;;;11.50;97.80;;;;;;5024466;28;20803;-61
2022/03/31 11:36:43;;;;;;;16.13;8.13;;;11.50;99.00;;;;;;5024504;28;20490;-60
2022/03/31 11:39:09;;;;;;;14.73;7.13;;;11.40;98.80;;;;;;5024952;28;20700;-61
2022/03/31 11:41:40;;;;;;;16.30;8.50;;;11.30;99.30;;;;;;5023852;28;20560;-60
2022/03/31 11:44:07;;;;;;;17.30;7.73;;;11.20;98.50;;;;;;5022921;28;20195;-61
2022/03/31 11:46:47;;;;;;;22.97;7.87;;;11.00;96.90;;;;;;5023000;28;20464;-59
2022/03/31 11:49:17;;;;;;;18.00;7.30;;;10.90;97.30;;;;;;5029340;28;20564;-59
2022/03/31 11:51:49;;;;;;;22.87;8.20;;;10.70;98.40;;;;;;5021050;28;20434;-59
2022/03/31 11:54:15;;;;;;;29.27;8.97;;;10.50;99.90;;;;;;5024803;28;20497;-60
2022/03/31 11:56:41;;;;;;;23.10;8.33;;;10.30;99.90;;;;;;5030302;28;20422;-60
2022/03/31 11:59:07;;;;;;;22.43;7.57;;;10.00;99.90;;;;;;5026744;28;20430;-60
2022/03/31 12:01:47;;;;;;;15.30;7.90;;;9.70;99.90;;;;;;5026298;28;20172;-61
2022/03/31 12:04:29;;;;;;;18.60;7.03;;;9.40;99.90;;;;;;5021353;28;20581;-60
2022/03/31 12:06:56;;;;;;;14.27;5.13;;;9.10;99.90;;;;;;5043329;28;20419;-59
2022/03/31 12:09:26;;;;;;;15.70;6.63;;;8.80;99.90;;;;;;5026713;28;20465;-60
2022/03/31 12:11:52;;;;;;;20.63;5.80;;;8.60;99.90;;;;;;5027863;28;20509;-60
2022/03/31 12:14:18;;;;;;;19.30;6.70;;;8.40;99.90;;;;;;5026143;28;20477;-59
2022/03/31 12:16:47;;;;;;;22.63;6.90;;;8.20;99.90;;;;;;5023855;28;20963;-60
2022/03/31 12:19:13;;;;;;;12.37;5.90;;;8.10;99.90;;;;;;5028719;28;20183;-59
2022/03/31 12:21:46;;;;;;;21.23;6.50;;;8.10;99.90;;;;;;5029153;28;20900;-60
2022/03/31 12:24:12;;;;;;;19.77;7.00;;;8.00;99.90;;;;;;5020659;28;20519;-59
2022/03/31 12:26:57;;;;;;;26.03;7.47;;;8.00;99.90;;;;;;5024262;28;20435;-60
2022/03/31 12:29:24;;;;;;;18.57;6.90;;;8.00;99.90;;;;;;5020095;28;20426;-59
2022/03/31 12:32:00;;;;;;;18.47;6.70;;;8.00;99.90;;;;;;5027510;28;21017;-60
2022/03/31 12:34:26;;;;;;;57.27;22.30;;;8.10;99.90;;;;;;5018233;28;20458;-59
2022/03/31 12:36:51;;;;;;;34.60;13.47;;;8.20;99.90;;;;;;5021737;28;20452;-59
2022/03/31 12:39:17;;;;;;;18.27;7.33;;;8.30;99.90;;;;;;5024757;28;20187;-60
2022/03/31 12:41:51;;;;;;;22.57;7.87;;;8.50;99.90;;;;;;5022527;28;20176;-60
2022/03/31 12:44:21;;;;;;;17.30;7.10;;;8.60;99.90;;;;;;5030247;28;20195;-60